createdAt,value
2018-09-14T00:00:08.010Z,11.60
2018-09-14T00:02:37.198Z,11.60
2018-09-14T00:05:06.069Z,11.50
2018-09-14T00:07:34.690Z,11.50
2018-09-14T00:10:03.412Z,11.50
2018-09-14T00:12:32.051Z,11.50
2018-09-14T00:15:00.746Z,11.50
2018-09-14T00:17:29.466Z,11.50
2018-09-14T00:19:58.253Z,11.50
2018-09-14T00:22:26.872Z,11.50
2018-09-14T00:24:55.605Z,11.50
2018-09-14T00:27:24.661Z,11.50
2018-09-14T00:29:53.331Z,11.50
2018-09-14T00:32:22.096Z,11.50
2018-09-14T00:34:50.747Z,11.40
2018-09-14T00:37:19.373Z,11.40
2018-09-14T00:39:48.153Z,11.40
2018-09-14T00:42:16.840Z,11.40
2018-09-14T00:44:45.650Z,11.30
2018-09-14T00:47:14.287Z,11.20
2018-09-14T00:49:42.930Z,11.30
2018-09-14T00:52:11.553Z,11.20
2018-09-14T00:54:40.335Z,11.20
2018-09-14T00:57:09.006Z,11.20
2018-09-14T00:59:37.832Z,11.10
2018-09-14T01:02:06.870Z,11.10
2018-09-14T01:04:35.516Z,11.00
2018-09-14T01:07:04.188Z,11.00
2018-09-14T01:09:32.861Z,10.90
2018-09-14T01:12:01.460Z,11.00
2018-09-14T01:14:30.031Z,10.90
2018-09-14T01:16:58.954Z,10.90
2018-09-14T01:19:28.306Z,10.90
2018-09-14T01:21:57.078Z,10.80
2018-09-14T01:24:25.765Z,10.80
2018-09-14T01:26:54.451Z,10.80
2018-09-14T01:29:23.272Z,10.80
2018-09-14T01:31:52.118Z,10.70
2018-09-14T01:34:20.910Z,10.70
2018-09-14T01:36:50.204Z,10.70
2018-09-14T01:39:18.881Z,10.70
2018-09-14T01:41:47.523Z,10.70
2018-09-14T01:44:16.123Z,10.80
2018-09-14T01:46:44.743Z,10.80
2018-09-14T01:49:13.332Z,10.90
2018-09-14T01:51:42.118Z,10.80
2018-09-14T01:54:10.776Z,10.80
2018-09-14T01:56:39.759Z,10.80
2018-09-14T01:59:08.418Z,10.90
2018-09-14T02:01:37.042Z,10.90
2018-09-14T02:04:05.726Z,10.90
2018-09-14T02:06:34.439Z,10.90
2018-09-14T02:09:03.214Z,10.90
2018-09-14T02:11:31.867Z,10.90
2018-09-14T02:14:00.557Z,10.80
2018-09-14T02:16:29.168Z,10.80
2018-09-14T02:18:57.790Z,10.70
2018-09-14T02:21:26.410Z,10.70
2018-09-14T02:23:55.170Z,10.60
2018-09-14T02:26:23.805Z,10.70
2018-09-14T02:28:52.418Z,10.70
2018-09-14T02:31:21.454Z,10.60
2018-09-14T02:33:50.119Z,10.50
2018-09-14T02:36:18.811Z,10.50
2018-09-14T02:38:47.433Z,10.50
2018-09-14T02:41:16.051Z,10.40
2018-09-14T02:43:44.695Z,10.40
2018-09-14T02:46:13.367Z,10.30
2018-09-14T02:48:42.040Z,10.30
2018-09-14T02:51:10.626Z,10.20
2018-09-14T02:53:39.297Z,10.20
2018-09-14T02:56:08.238Z,10.20
2018-09-14T02:58:36.879Z,10.20
2018-09-14T03:01:05.690Z,10.30
2018-09-14T03:03:34.305Z,10.20
2018-09-14T03:06:02.957Z,10.30
2018-09-14T03:08:31.648Z,10.30
2018-09-14T03:11:00.305Z,10.40
2018-09-14T03:13:29.076Z,10.40
2018-09-14T03:15:57.729Z,10.40
2018-09-14T03:18:26.350Z,10.40
2018-09-14T03:20:55.001Z,10.30
2018-09-14T03:23:23.645Z,10.20
2018-09-14T03:25:52.565Z,10.10
2018-09-14T03:28:21.201Z,10.00
2018-09-14T03:30:50.039Z,10.00
2018-09-14T03:33:18.636Z,9.90
2018-09-14T03:35:47.225Z,9.90
2018-09-14T03:38:15.859Z,9.80
2018-09-14T03:40:44.489Z,9.80
2018-09-14T03:43:13.123Z,9.80
2018-09-14T03:45:41.758Z,9.80
2018-09-14T03:48:10.360Z,9.80
2018-09-14T03:50:38.971Z,9.80
2018-09-14T03:53:07.672Z,9.60
2018-09-14T03:55:36.499Z,9.40
2018-09-14T03:58:05.321Z,9.40
2018-09-14T04:00:34.003Z,9.50
2018-09-14T04:03:02.662Z,9.50
2018-09-14T04:05:31.261Z,9.50
2018-09-14T04:08:00.001Z,9.50
2018-09-14T04:10:28.637Z,9.50
2018-09-14T04:12:57.421Z,9.60
2018-09-14T04:15:26.270Z,9.60
2018-09-14T04:17:54.908Z,9.50
2018-09-14T04:20:23.539Z,9.50
2018-09-14T04:22:52.333Z,9.50
2018-09-14T04:25:20.956Z,9.50
2018-09-14T04:27:49.561Z,9.50
2018-09-14T04:30:18.177Z,9.50
2018-09-14T04:32:46.800Z,9.50
2018-09-14T04:35:15.443Z,9.50
2018-09-14T04:37:44.108Z,9.60
2018-09-14T04:40:12.785Z,9.60
2018-09-14T04:42:41.532Z,9.60
2018-09-14T04:45:10.188Z,9.60
2018-09-14T04:47:38.837Z,9.60
2018-09-14T04:50:07.460Z,9.50
2018-09-14T04:52:36.082Z,9.40
2018-09-14T04:55:04.750Z,9.40
2018-09-14T04:57:33.369Z,9.40
2018-09-14T05:00:02.207Z,9.40
2018-09-14T05:02:30.850Z,9.30
2018-09-14T05:04:59.470Z,9.30
2018-09-14T05:07:28.432Z,9.30
2018-09-14T05:09:57.150Z,9.30
2018-09-14T05:12:25.794Z,9.40
2018-09-14T05:14:54.814Z,9.40
2018-09-14T05:17:23.473Z,9.40
2018-09-14T05:19:52.113Z,9.40
2018-09-14T05:22:20.939Z,9.40
2018-09-14T05:24:49.566Z,9.50
2018-09-14T05:27:18.174Z,9.50
2018-09-14T05:29:47.272Z,9.50
2018-09-14T05:32:16.054Z,9.50
2018-09-14T05:34:44.823Z,9.50
2018-09-14T05:37:13.530Z,9.50
2018-09-14T05:39:42.343Z,9.40
2018-09-14T05:42:11.169Z,9.40
2018-09-14T05:44:39.816Z,9.40
2018-09-14T05:47:08.668Z,9.40
2018-09-14T05:49:37.389Z,9.40
2018-09-14T05:52:06.479Z,9.50
2018-09-14T05:54:35.239Z,9.60
2018-09-14T05:57:03.855Z,9.70
2018-09-14T05:59:32.483Z,9.70
2018-09-14T06:02:01.149Z,9.80
2018-09-14T06:04:29.792Z,9.80
2018-09-14T06:06:58.466Z,9.80
2018-09-14T06:09:27.224Z,9.90
2018-09-14T06:11:55.830Z,9.90
2018-09-14T06:14:24.492Z,10.00
2018-09-14T06:16:53.506Z,10.00
2018-09-14T06:19:22.242Z,10.00
2018-09-14T06:21:51.049Z,10.00
2018-09-14T06:24:19.774Z,10.00
2018-09-14T06:26:48.440Z,10.10
2018-09-14T06:29:17.486Z,10.20
2018-09-14T06:31:46.116Z,10.30
2018-09-14T06:34:14.806Z,10.30
2018-09-14T06:36:43.538Z,10.30
2018-09-14T06:39:13.036Z,10.40
2018-09-14T06:41:41.718Z,10.40
2018-09-14T06:44:10.522Z,10.40
2018-09-14T06:46:39.184Z,10.40
2018-09-14T06:49:07.877Z,10.50
2018-09-14T06:51:38.094Z,10.50
2018-09-14T06:54:07.328Z,10.50
2018-09-14T06:56:35.962Z,10.60
2018-09-14T06:59:04.836Z,10.60
2018-09-14T07:01:34.380Z,10.70
2018-09-14T07:04:03.050Z,10.80
2018-09-14T07:06:31.717Z,10.80
2018-09-14T07:09:00.325Z,10.90
2018-09-14T07:11:29.223Z,11.00
2018-09-14T07:13:57.975Z,11.00
2018-09-14T07:16:26.740Z,11.10
2018-09-14T07:18:55.603Z,11.10
2018-09-14T07:21:24.281Z,11.30
2018-09-14T07:23:53.063Z,11.30
2018-09-14T07:26:21.741Z,11.40
2018-09-14T07:28:50.765Z,11.50
2018-09-14T07:31:19.771Z,11.60
2018-09-14T07:33:48.390Z,11.70
2018-09-14T07:36:17.074Z,11.80
2018-09-14T07:38:45.698Z,11.80
2018-09-14T07:41:14.308Z,11.90
2018-09-14T07:43:43.200Z,12.00
2018-09-14T07:46:11.881Z,12.10
2018-09-14T07:48:40.579Z,12.20
2018-09-14T07:51:09.282Z,12.30
2018-09-14T07:53:38.062Z,12.30
2018-09-14T07:56:06.796Z,12.40
2018-09-14T07:58:35.659Z,12.50
2018-09-14T08:01:04.520Z,12.60
2018-09-14T08:03:33.333Z,12.60
2018-09-14T08:06:01.967Z,12.70
2018-09-14T08:08:30.965Z,12.90
2018-09-14T08:10:59.638Z,12.90
2018-09-14T08:13:28.294Z,13.00
2018-09-14T08:15:56.940Z,13.00
2018-09-14T08:18:25.621Z,13.10
2018-09-14T08:20:54.293Z,13.20
2018-09-14T08:23:22.978Z,13.30
2018-09-14T08:25:51.933Z,13.40
2018-09-14T08:28:20.582Z,13.40
2018-09-14T08:30:55.892Z,13.50
2018-09-14T08:33:24.536Z,13.60
2018-09-14T08:35:53.402Z,13.70
2018-09-14T08:38:22.050Z,13.70
2018-09-14T08:40:50.740Z,13.90
2018-09-14T08:43:19.405Z,13.90
2018-09-14T08:45:48.122Z,14.00
2018-09-14T08:48:16.781Z,14.00
2018-09-14T08:50:45.479Z,14.10
2018-09-14T08:53:14.165Z,14.10
2018-09-14T08:55:42.890Z,14.20
2018-09-14T08:58:11.677Z,14.20
2018-09-14T09:00:40.331Z,14.30
2018-09-14T09:03:09.355Z,14.30
2018-09-14T09:05:38.143Z,14.40
2018-09-14T09:08:06.851Z,14.40
2018-09-14T09:10:35.497Z,14.60
2018-09-14T09:13:04.299Z,14.60
2018-09-14T09:15:33.318Z,14.70
2018-09-14T09:18:01.943Z,14.70
2018-09-14T09:20:30.965Z,14.80
2018-09-14T09:22:59.720Z,14.80
2018-09-14T09:25:28.407Z,14.80
2018-09-14T09:27:57.049Z,14.90
2018-09-14T09:30:28.862Z,15.00
2018-09-14T09:32:57.548Z,15.00
2018-09-14T09:35:26.189Z,15.10
2018-09-14T09:37:55.035Z,15.10
2018-09-14T09:40:23.719Z,15.20
2018-09-14T09:42:52.631Z,15.30
2018-09-14T09:45:21.487Z,15.30
2018-09-14T09:47:50.207Z,15.40
2018-09-14T09:50:19.000Z,15.40
2018-09-14T09:52:47.812Z,15.50
2018-09-14T09:55:16.521Z,15.50
2018-09-14T09:57:45.161Z,15.70
2018-09-14T10:00:19.025Z,15.70
2018-09-14T10:02:53.192Z,15.80
2018-09-14T10:05:27.249Z,15.90
2018-09-14T10:07:56.034Z,15.90
2018-09-14T10:10:24.961Z,15.90
2018-09-14T10:12:53.686Z,16.00
2018-09-14T10:15:22.299Z,16.00
2018-09-14T10:17:50.987Z,16.10
2018-09-14T10:20:19.898Z,16.20
2018-09-14T10:22:48.565Z,16.20
2018-09-14T10:25:17.240Z,16.30
2018-09-14T10:27:45.881Z,16.40
2018-09-14T10:30:14.761Z,16.40
2018-09-14T10:32:43.460Z,16.50
2018-09-14T10:35:12.183Z,16.50
2018-09-14T10:37:40.778Z,16.50
2018-09-14T10:40:09.772Z,16.50
2018-09-14T10:42:38.429Z,16.50
2018-09-14T10:45:07.104Z,16.60
2018-09-14T10:47:35.960Z,16.60
2018-09-14T10:50:04.845Z,16.80
2018-09-14T10:52:33.468Z,16.70
2018-09-14T10:55:02.144Z,16.70
2018-09-14T10:57:30.810Z,16.90
2018-09-14T10:59:59.479Z,17.00
2018-09-14T11:02:28.133Z,17.10
2018-09-14T11:04:56.992Z,17.10
2018-09-14T11:07:25.675Z,17.10
2018-09-14T11:09:54.464Z,17.20
2018-09-14T11:12:23.100Z,17.30
2018-09-14T11:14:52.002Z,17.40
2018-09-14T11:17:20.814Z,17.50
2018-09-14T11:19:49.430Z,17.40
2018-09-14T11:22:18.104Z,17.70
2018-09-14T11:24:47.136Z,17.80
2018-09-14T11:27:15.752Z,17.70
2018-09-14T11:29:44.420Z,17.80
2018-09-14T11:32:13.266Z,18.10
2018-09-14T11:34:41.896Z,18.10
2018-09-14T11:37:10.583Z,18.20
2018-09-14T11:39:39.630Z,18.40
2018-09-14T11:42:08.330Z,18.50
2018-09-14T11:44:37.028Z,18.70
2018-09-14T11:47:06.803Z,18.90
2018-09-14T11:49:35.788Z,18.70
2018-09-14T11:52:04.584Z,18.70
2018-09-14T11:54:33.414Z,18.90
2018-09-14T11:57:02.124Z,19.20
2018-09-14T11:59:30.798Z,18.90
2018-09-14T12:01:59.429Z,19.10
2018-09-14T12:04:28.134Z,19.10
2018-09-14T12:06:56.846Z,19.40
2018-09-14T12:09:25.498Z,19.30
2018-09-14T12:11:54.237Z,19.20
2018-09-14T12:14:22.888Z,19.40
2018-09-14T12:16:51.673Z,19.30
2018-09-14T12:19:20.329Z,19.50
2018-09-14T12:21:48.996Z,19.90
2018-09-14T12:24:17.619Z,20.00
2018-09-14T12:26:46.431Z,19.90
2018-09-14T12:29:15.143Z,19.80
2018-09-14T12:31:43.884Z,19.70
2018-09-14T12:34:12.679Z,19.70
2018-09-14T12:36:41.428Z,19.60
2018-09-14T12:39:10.925Z,19.50
2018-09-14T12:41:39.995Z,19.30
2018-09-14T12:44:08.687Z,19.50
2018-09-14T12:46:37.446Z,20.00
2018-09-14T12:49:06.143Z,20.00
2018-09-14T12:51:34.908Z,20.00
2018-09-14T12:54:03.585Z,19.80
2018-09-14T12:56:32.488Z,20.00
2018-09-14T12:59:01.371Z,20.10
2018-09-14T13:01:30.019Z,20.10
2018-09-14T13:03:58.671Z,20.30
2018-09-14T13:06:27.367Z,20.70
2018-09-14T13:08:56.135Z,20.80
2018-09-14T13:11:24.798Z,20.50
2018-09-14T13:13:53.488Z,20.40
2018-09-14T13:16:22.290Z,21.00
2018-09-14T13:18:51.136Z,21.70
2018-09-14T13:21:20.105Z,22.40
2018-09-14T13:23:48.894Z,22.90
2018-09-14T13:26:17.534Z,22.80
2018-09-14T13:28:46.167Z,23.10
2018-09-14T13:31:14.818Z,23.00
2018-09-14T13:33:43.538Z,23.30
2018-09-14T13:36:12.278Z,23.30
2018-09-14T13:38:41.009Z,23.40
2018-09-14T13:41:09.811Z,23.40
2018-09-14T13:43:38.930Z,23.30
2018-09-14T13:46:07.934Z,23.30
2018-09-14T13:48:36.922Z,23.20
2018-09-14T13:51:05.813Z,23.20
2018-09-14T13:53:34.681Z,23.50
2018-09-14T13:56:03.424Z,23.30
2018-09-14T13:58:32.158Z,22.90
2018-09-14T14:01:01.178Z,23.00
2018-09-14T14:03:29.982Z,22.90
2018-09-14T14:05:58.638Z,22.40
2018-09-14T14:08:27.341Z,21.90
2018-09-14T14:10:56.000Z,21.70
2018-09-14T14:13:24.667Z,21.60
2018-09-14T14:15:53.466Z,21.80
2018-09-14T14:18:22.090Z,22.10
2018-09-14T14:20:50.758Z,21.90
2018-09-14T14:23:19.522Z,21.50
2018-09-14T14:25:48.267Z,21.50
2018-09-14T14:28:16.926Z,21.50
2018-09-14T14:30:45.572Z,21.60
2018-09-14T14:33:14.298Z,21.50
2018-09-14T14:35:42.950Z,21.40
2018-09-14T14:38:11.779Z,21.50
2018-09-14T14:40:40.410Z,21.20
2018-09-14T14:43:09.114Z,20.90
2018-09-14T14:45:37.778Z,20.70
2018-09-14T14:48:06.614Z,20.70
2018-09-14T14:50:35.492Z,20.90
2018-09-14T14:53:04.310Z,21.00
2018-09-14T14:55:33.084Z,20.80
2018-09-14T14:58:01.817Z,20.60
2018-09-14T15:00:30.568Z,20.40
2018-09-14T15:02:59.270Z,20.20
2018-09-14T15:05:27.942Z,20.10
2018-09-14T15:07:56.638Z,20.00
2018-09-14T15:10:25.399Z,19.90
2018-09-14T15:12:54.114Z,19.80
2018-09-14T15:15:22.884Z,19.70
2018-09-14T15:17:51.578Z,19.70
2018-09-14T15:20:20.451Z,19.60
2018-09-14T15:22:49.108Z,19.60
2018-09-14T15:25:17.995Z,19.60
2018-09-14T15:27:46.892Z,19.50
2018-09-14T15:30:15.563Z,19.50
2018-09-14T15:32:44.216Z,19.40
2018-09-14T15:35:13.071Z,19.30
2018-09-14T15:37:41.738Z,19.30
2018-09-14T15:40:10.382Z,19.30
2018-09-14T15:42:39.120Z,19.40
2018-09-14T15:45:07.834Z,19.40
2018-09-14T15:47:36.472Z,19.40
2018-09-14T15:50:05.214Z,19.50
2018-09-14T15:52:34.195Z,19.50
2018-09-14T15:55:02.856Z,19.60
2018-09-14T15:57:31.675Z,19.70
2018-09-14T16:00:00.400Z,19.70
2018-09-14T16:02:28.980Z,19.80
2018-09-14T16:04:57.948Z,19.70
2018-09-14T16:07:26.763Z,19.70
2018-09-14T16:09:55.446Z,19.60
2018-09-14T16:12:24.131Z,19.60
2018-09-14T16:14:52.835Z,19.50
2018-09-14T16:17:21.550Z,19.50
2018-09-14T16:19:50.787Z,19.50
2018-09-14T16:22:19.478Z,19.40
2018-09-14T16:24:48.315Z,19.40
2018-09-14T16:27:16.998Z,19.40
2018-09-14T16:29:45.927Z,19.30
2018-09-14T16:32:14.592Z,19.10
2018-09-14T16:34:43.342Z,19.10
2018-09-14T16:37:12.073Z,19.10
2018-09-14T16:39:40.702Z,19.00
2018-09-14T16:42:09.350Z,19.00
2018-09-14T16:44:39.798Z,19.00
2018-09-14T16:47:08.926Z,19.00
2018-09-14T16:49:38.087Z,19.00
2018-09-14T16:52:07.100Z,19.00
2018-09-14T16:54:36.068Z,18.90
2018-09-14T16:57:05.030Z,18.90
2018-09-14T16:59:33.706Z,18.80
2018-09-14T17:02:02.509Z,18.70
2018-09-14T17:04:31.437Z,18.70
2018-09-14T17:07:00.068Z,18.70
2018-09-14T17:09:28.731Z,18.60
2018-09-14T17:11:57.425Z,18.60
2018-09-14T17:14:26.304Z,18.60
2018-09-14T17:16:55.132Z,18.50
2018-09-14T17:19:23.954Z,18.50
2018-09-14T17:21:52.712Z,18.50
2018-09-14T17:24:21.728Z,18.50
2018-09-14T17:26:50.386Z,18.50
2018-09-14T17:29:19.040Z,18.40
2018-09-14T17:31:47.770Z,18.40
2018-09-14T17:34:16.469Z,18.30
2018-09-14T17:36:45.450Z,18.30
2018-09-14T17:39:14.330Z,18.20
2018-09-14T17:41:43.058Z,18.20
2018-09-14T17:44:11.951Z,18.20
2018-09-14T17:46:40.654Z,18.20
2018-09-14T17:49:09.600Z,18.20
2018-09-14T17:51:38.285Z,18.10
2018-09-14T17:54:07.234Z,18.10
2018-09-14T17:56:35.918Z,18.10
2018-09-14T17:59:04.955Z,18.10
2018-09-14T18:01:33.581Z,18.10
2018-09-14T18:04:02.453Z,18.00
2018-09-14T18:06:31.194Z,18.00
2018-09-14T18:09:00.034Z,18.00
2018-09-14T18:11:28.888Z,17.90
2018-09-14T18:13:57.561Z,17.90
2018-09-14T18:16:26.273Z,17.90
2018-09-14T18:18:55.364Z,17.80
2018-09-14T18:21:23.996Z,17.70
2018-09-14T18:23:52.716Z,17.80
2018-09-14T18:26:21.732Z,17.70
2018-09-14T18:28:51.394Z,17.70
2018-09-14T18:31:20.240Z,17.70
2018-09-14T18:33:48.962Z,17.70
2018-09-14T18:36:17.762Z,17.70
2018-09-14T18:38:46.706Z,17.70
2018-09-14T18:41:15.376Z,17.60
2018-09-14T18:43:44.103Z,17.60
2018-09-14T18:46:12.866Z,17.50
2018-09-14T18:48:41.529Z,17.50
2018-09-14T18:51:10.222Z,17.40
2018-09-14T18:53:39.099Z,17.20
2018-09-14T18:56:08.269Z,17.10
2018-09-14T18:58:37.060Z,17.00
2018-09-14T19:01:05.743Z,16.90
2018-09-14T19:03:34.416Z,16.90
2018-09-14T19:06:03.079Z,16.90
2018-09-14T19:08:31.911Z,16.90
2018-09-14T19:11:00.667Z,16.90
2018-09-14T19:13:29.330Z,16.80
2018-09-14T19:15:57.981Z,16.80
2018-09-14T19:18:26.711Z,16.80
2018-09-14T19:20:55.735Z,16.70
2018-09-14T19:23:24.564Z,16.80
2018-09-14T19:25:53.237Z,16.90
2018-09-14T19:28:21.874Z,16.80
2018-09-14T19:30:50.527Z,16.80
2018-09-14T19:33:19.381Z,16.90
2018-09-14T19:35:48.238Z,16.90
2018-09-14T19:38:17.140Z,16.80
2018-09-14T19:40:45.806Z,16.80
2018-09-14T19:43:14.821Z,16.70
2018-09-14T19:45:43.495Z,16.70
2018-09-14T19:48:12.448Z,16.70
2018-09-14T19:50:41.494Z,16.60
2018-09-14T19:53:10.213Z,16.60
2018-09-14T19:55:39.092Z,16.60
2018-09-14T19:58:07.793Z,16.50
2018-09-14T20:00:36.522Z,16.50
2018-09-14T20:03:05.237Z,16.50
2018-09-14T20:05:34.281Z,16.50
2018-09-14T20:08:03.332Z,16.50
2018-09-14T20:10:32.273Z,16.50
2018-09-14T20:13:00.969Z,16.50
2018-09-14T20:15:29.895Z,16.40
2018-09-14T20:17:58.939Z,16.40
2018-09-14T20:20:27.746Z,16.50
2018-09-14T20:22:56.451Z,16.50
2018-09-14T20:25:25.226Z,16.50
2018-09-14T20:27:53.965Z,16.40
2018-09-14T20:30:22.823Z,16.40
2018-09-14T20:32:51.550Z,16.50
2018-09-14T20:35:21.023Z,16.40
2018-09-14T20:37:49.812Z,16.30
2018-09-14T20:40:19.012Z,16.40
2018-09-14T20:42:48.100Z,16.30
2018-09-14T20:45:17.007Z,16.30
2018-09-14T20:47:46.158Z,16.30
2018-09-14T20:50:15.293Z,16.20
2018-09-14T20:52:44.668Z,16.20
2018-09-14T20:55:13.654Z,16.20
2018-09-14T20:57:42.846Z,16.20
2018-09-14T21:00:11.957Z,16.20
2018-09-14T21:02:40.990Z,16.20
2018-09-14T21:05:10.265Z,16.10
2018-09-14T21:07:39.160Z,16.10
2018-09-14T21:10:08.322Z,16.00
2018-09-14T21:12:37.266Z,16.00
2018-09-14T21:15:06.873Z,16.00
2018-09-14T21:17:35.851Z,15.90
2018-09-14T21:20:11.521Z,15.90
2018-09-14T21:22:41.333Z,15.80
2018-09-14T21:25:10.320Z,15.80
2018-09-14T21:27:39.230Z,15.80
2018-09-14T21:30:08.367Z,15.80
2018-09-14T21:32:38.336Z,15.70
2018-09-14T21:35:07.413Z,15.70
2018-09-14T21:37:36.317Z,15.70
2018-09-14T21:40:05.285Z,15.60
2018-09-14T21:42:34.087Z,15.50
2018-09-14T21:45:03.101Z,15.50
2018-09-14T21:47:31.980Z,15.50
2018-09-14T21:50:00.893Z,15.40
2018-09-14T21:52:29.555Z,15.40
2018-09-14T21:54:58.237Z,15.30
2018-09-14T21:57:27.101Z,15.40
2018-09-14T21:59:55.824Z,15.30
2018-09-14T22:02:24.781Z,15.30
2018-09-14T22:04:53.559Z,15.20
2018-09-14T22:07:22.250Z,15.20
2018-09-14T22:09:51.107Z,15.20
2018-09-14T22:12:19.773Z,15.10
2018-09-14T22:14:48.557Z,15.20
2018-09-14T22:17:17.215Z,15.10
2018-09-14T22:19:46.007Z,15.10
2018-09-14T22:22:14.979Z,15.10
2018-09-14T22:24:43.852Z,15.00
2018-09-14T22:27:12.525Z,15.00
2018-09-14T22:29:41.195Z,14.90
2018-09-14T22:32:09.918Z,14.90
2018-09-14T22:34:38.698Z,14.90
2018-09-14T22:37:07.511Z,14.90
2018-09-14T22:39:36.191Z,14.90
2018-09-14T22:42:05.471Z,14.80
2018-09-14T22:44:34.290Z,14.80
2018-09-14T22:47:02.941Z,14.80
2018-09-14T22:49:31.574Z,14.70
2018-09-14T22:52:00.371Z,14.70
2018-09-14T22:54:29.196Z,14.60
2018-09-14T22:56:58.105Z,14.60
2018-09-14T22:59:26.831Z,14.60
2018-09-14T23:01:55.583Z,14.50
2018-09-14T23:04:24.225Z,14.50
2018-09-14T23:06:52.930Z,14.50
2018-09-14T23:09:21.710Z,14.50
2018-09-14T23:11:50.351Z,14.40
2018-09-14T23:14:18.955Z,14.40
2018-09-14T23:16:47.615Z,14.40
2018-09-14T23:19:16.277Z,14.30
2018-09-14T23:21:44.978Z,14.30
2018-09-14T23:24:13.723Z,14.20
2018-09-14T23:26:42.553Z,14.10
2018-09-14T23:29:11.225Z,14.10
2018-09-14T23:31:39.912Z,14.10
2018-09-14T23:34:08.612Z,14.10
2018-09-14T23:36:37.230Z,14.00
2018-09-14T23:39:08.602Z,14.00
2018-09-14T23:41:37.324Z,13.90
2018-09-14T23:44:06.154Z,13.80
2018-09-14T23:46:34.830Z,13.80
2018-09-14T23:49:03.833Z,13.80
2018-09-14T23:51:32.464Z,13.80
2018-09-14T23:54:01.087Z,13.80
2018-09-14T23:56:29.747Z,13.70
2018-09-14T23:58:58.420Z,13.70
